Time;durP1;ratioP1;P1;durP2;ratioP2;P2;SDS_P1;SDS_P2;PMS_P1;PMS_P2;Temp;Humidity;BMP_temperature;BMP_pressure;BME280_temperature;BME280_humidity;BME280_pressure;Samples;Min_cycle;Max_cycle;Signal;HPM_P1;HPM_P2
2023/09/21 03:03:19;;;;;;;2.25;1.52;;;19.80;90.00;;;;;;5054621;28;20063;-80
2023/09/21 03:05:47;;;;;;;2.33;1.60;;;19.80;90.00;;;;;;5041696;28;20086;-81
2023/09/21 03:08:13;;;;;;;2.30;1.40;;;19.80;90.00;;;;;;5060306;28;20101;-81
2023/09/21 03:10:50;;;;;;;3.42;1.48;;;19.80;90.00;;;;;;5055811;28;20032;-80
2023/09/21 03:13:21;;;;;;;3.45;2.05;;;19.80;90.00;;;;;;5056197;28;20024;-81
2023/09/21 03:15:49;;;;;;;4.53;2.13;;;19.80;89.90;;;;;;5045854;28;20036;-81
2023/09/21 03:18:16;;;;;;;4.22;2.08;;;19.80;89.90;;;;;;5044911;28;20025;-81
2023/09/21 03:20:43;;;;;;;3.25;1.88;;;19.80;90.00;;;;;;5066610;28;20086;-80
2023/09/21 03:23:10;;;;;;;3.80;2.10;;;19.80;90.00;;;;;;5060759;28;20596;-81
2023/09/21 03:25:43;;;;;;;2.25;1.60;;;19.80;90.00;;;;;;5051031;28;20020;-81
2023/09/21 03:28:13;;;;;;;4.43;2.17;;;19.80;90.00;;;;;;5047732;28;20202;-80
2023/09/21 03:30:49;;;;;;;2.65;1.70;;;19.80;90.00;;;;;;5045503;28;20059;-81
2023/09/21 03:33:16;;;;;;;5.40;1.85;;;19.80;90.00;;;;;;5049067;28;20051;-82
2023/09/21 03:35:42;;;;;;;2.60;1.80;;;19.80;90.00;;;;;;5051740;28;20021;-81
2023/09/21 03:38:30;;;;;;;4.05;1.83;;;19.80;90.00;;;;;;5045952;28;20120;-81
2023/09/21 03:40:56;;;;;;;2.38;1.58;;;19.80;90.00;;;;;;5063877;28;20040;-81
2023/09/21 03:43:23;;;;;;;6.72;2.20;;;19.80;90.00;;;;;;5056323;28;20085;-81
2023/09/21 03:45:50;;;;;;;3.60;1.67;;;19.80;90.00;;;;;;5059881;28;20474;-81
2023/09/21 03:48:16;;;;;;;2.80;2.08;;;19.80;90.00;;;;;;5044340;28;20032;-81
2023/09/21 03:50:42;;;;;;;3.05;1.88;;;19.80;90.00;;;;;;5046748;28;20024;-81
2023/09/21 03:53:11;;;;;;;4.55;2.17;;;19.80;90.00;;;;;;5058588;28;20028;-81
2023/09/21 03:55:38;;;;;;;2.92;1.80;;;19.80;90.00;;;;;;5048070;28;20028;-80
2023/09/21 03:58:05;;;;;;;8.13;2.03;;;19.80;90.00;;;;;;5054679;28;20029;-81
2023/09/21 04:03:09;;;;;;;2.45;1.80;;;19.80;90.00;;;;;;5056684;28;20028;-81
2023/09/21 04:05:40;;;;;;;7.65;1.98;;;19.80;90.00;;;;;;5059672;28;20025;-82
2023/09/21 04:08:07;;;;;;;4.10;1.90;;;19.80;90.00;;;;;;5060022;28;20023;-81
2023/09/21 04:10:35;;;;;;;3.30;1.95;;;19.80;90.00;;;;;;5040097;28;20032;-81
2023/09/21 04:13:01;;;;;;;3.95;2.20;;;19.70;89.90;;;;;;5046606;28;20029;-81
2023/09/21 04:15:30;;;;;;;6.47;2.17;;;19.80;90.00;;;;;;5056936;28;20052;-81
2023/09/21 04:17:57;;;;;;;9.07;2.30;;;19.80;90.00;;;;;;5038971;28;20028;-80
2023/09/21 04:20:23;;;;;;;7.63;1.95;;;19.70;90.00;;;;;;5057135;28;20033;-81
2023/09/21 04:22:51;;;;;;;3.92;2.00;;;19.70;89.90;;;;;;5057481;28;20036;-80
2023/09/21 04:25:18;;;;;;;5.13;2.13;;;19.80;90.00;;;;;;5040256;28;20029;-81
2023/09/21 04:27:48;;;;;;;3.38;2.47;;;19.80;90.00;;;;;;5046358;28;20056;-81
2023/09/21 04:30:15;;;;;;;;;;;19.70;89.90;;;;;;5035909;28;20351;-82
2023/09/21 04:32:46;;;;;;;3.58;2.22;;;19.70;90.00;;;;;;5057991;28;19915;-81
2023/09/21 04:35:12;;;;;;;6.25;2.20;;;19.80;90.00;;;;;;5041135;28;20028;-81
2023/09/21 04:37:38;;;;;;;4.28;2.08;;;19.70;90.00;;;;;;5034656;28;20385;-81
2023/09/21 04:40:11;;;;;;;2.47;1.77;;;19.70;90.00;;;;;;5039920;28;20028;-81
2023/09/21 04:42:38;;;;;;;3.30;2.28;;;19.80;90.00;;;;;;5044779;28;20021;-81
2023/09/21 04:45:15;;;;;;;4.55;2.10;;;19.70;90.00;;;;;;5044347;28;20036;-82
2023/09/21 04:47:43;;;;;;;2.15;1.80;;;19.70;90.00;;;;;;5047223;28;20075;-81
2023/09/21 04:50:13;;;;;;;4.28;2.05;;;19.70;89.90;;;;;;5057648;28;20029;-80
2023/09/21 04:52:38;;;;;;;2.65;1.83;;;19.70;89.90;;;;;;5043659;28;20386;-81
2023/09/21 04:55:08;;;;;;;4.88;2.13;;;19.70;90.30;;;;;;5046954;28;20034;-82
2023/09/21 04:57:34;;;;;;;2.67;2.10;;;19.70;90.30;;;;;;5066469;28;20107;-80
2023/09/21 05:00:00;;;;;;;2.42;2.10;;;19.70;89.90;;;;;;5052602;28;20124;-81
2023/09/21 05:02:26;;;;;;;3.15;1.88;;;19.70;89.90;;;;;;5051671;28;20029;-81
2023/09/21 05:04:52;;;;;;;3.30;2.40;;;19.70;90.00;;;;;;5048175;28;20484;-81
2023/09/21 05:07:18;;;;;;;4.10;2.10;;;19.70;89.90;;;;;;5047464;28;20029;-80
2023/09/21 05:09:47;;;;;;;4.22;1.75;;;19.70;89.90;;;;;;5059554;28;20035;-81
2023/09/21 05:12:13;;;;;;;3.97;2.22;;;19.70;89.90;;;;;;5037872;28;20024;-80
2023/09/21 05:14:39;;;;;;;4.60;2.47;;;19.70;90.00;;;;;;5046432;28;20515;-82
2023/09/21 05:17:05;;;;;;;10.32;2.10;;;19.70;89.90;;;;;;5058322;28;20107;-81
2023/09/21 05:19:32;;;;;;;6.82;2.45;;;19.70;89.90;;;;;;5061937;28;20017;-81
2023/09/21 05:21:59;;;;;;;10.20;2.28;;;19.70;90.00;;;;;;5057874;28;20031;-81
2023/09/21 05:24:25;;;;;;;4.95;1.98;;;19.70;90.00;;;;;;5067994;28;20100;-80
2023/09/21 05:26:52;;;;;;;5.55;2.15;;;19.70;90.00;;;;;;5066067;28;20058;-80
2023/09/21 05:29:19;;;;;;;5.55;1.90;;;19.70;90.00;;;;;;5053556;28;20025;-80
2023/09/21 05:31:45;;;;;;;7.88;1.70;;;19.70;90.00;;;;;;5048738;28;20485;-81
2023/09/21 05:34:11;;;;;;;5.15;2.45;;;19.70;89.90;;;;;;5053187;28;20025;-81
2023/09/21 05:36:36;;;;;;;4.47;2.40;;;19.70;89.90;;;;;;5066394;28;20098;-81
2023/09/21 05:39:04;;;;;;;6.18;2.42;;;19.70;89.90;;;;;;5051323;28;20036;-81
2023/09/21 05:41:31;;;;;;;10.88;2.13;;;19.70;89.90;;;;;;5065030;28;20481;-81
2023/09/21 05:43:57;;;;;;;11.60;2.38;;;19.70;89.90;;;;;;5069080;28;20021;-80
2023/09/21 05:46:22;;;;;;;8.32;2.33;;;19.70;89.90;;;;;;5046407;28;20466;-80
2023/09/21 05:48:48;;;;;;;3.97;2.10;;;19.70;89.90;;;;;;5042169;28;20052;-81
2023/09/21 05:51:14;;;;;;;10.18;2.53;;;19.70;89.90;;;;;;5063696;28;20403;-81
2023/09/21 05:53:40;;;;;;;6.03;2.13;;;19.70;89.90;;;;;;5059647;28;20021;-80
2023/09/21 05:56:05;;;;;;;4.35;2.60;;;19.70;89.90;;;;;;5065583;28;20062;-81
2023/09/21 05:58:31;;;;;;;7.63;2.58;;;19.70;89.80;;;;;;5049525;28;20020;-80
2023/09/21 06:00:59;;;;;;;8.90;2.53;;;19.70;89.90;;;;;;5050229;28;20029;-80
2023/09/21 06:03:26;;;;;;;8.13;2.53;;;19.70;89.80;;;;;;5067204;28;20024;-82
2023/09/21 06:05:52;;;;;;;7.10;2.40;;;19.70;89.90;;;;;;5064822;28;20025;-80
2023/09/21 06:08:19;;;;;;;3.05;2.03;;;19.70;89.90;;;;;;5045897;28;20031;-81
2023/09/21 06:10:45;;;;;;;5.95;2.67;;;19.70;89.90;;;;;;5063547;28;20531;-80
2023/09/21 06:13:12;;;;;;;5.38;2.10;;;19.70;89.90;;;;;;5068884;28;20036;-81
2023/09/21 06:15:47;;;;;;;6.07;2.30;;;19.70;89.90;;;;;;5068114;28;20020;-80
2023/09/21 06:18:14;;;;;;;4.95;2.47;;;19.70;89.90;;;;;;5050543;28;20051;-80
2023/09/21 06:20:42;;;;;;;2.85;1.85;;;19.70;89.90;;;;;;5051053;28;20381;-80
2023/09/21 06:23:08;;;;;;;3.72;2.53;;;19.70;90.00;;;;;;5065909;28;20516;-82
2023/09/21 06:25:35;;;;;;;5.90;2.42;;;19.70;90.00;;;;;;5071244;28;20047;-81
2023/09/21 06:28:03;;;;;;;4.78;1.98;;;19.70;90.00;;;;;;5066006;28;20028;-81
2023/09/21 06:30:29;;;;;;;4.82;2.90;;;19.70;90.00;;;;;;5046590;28;20390;-81
2023/09/21 06:32:55;;;;;;;3.72;2.33;;;19.70;90.00;;;;;;5053632;28;20020;-81
2023/09/21 06:35:25;;;;;;;3.78;2.30;;;19.70;90.00;;;;;;5049017;28;20028;-81
2023/09/21 06:37:54;;;;;;;5.50;2.38;;;19.70;90.00;;;;;;5046935;28;20032;-80
2023/09/21 06:43:07;;;;;;;4.13;1.98;;;19.70;90.00;;;;;;5064447;28;20047;-81
2023/09/21 06:45:34;;;;;;;4.65;2.25;;;19.70;90.00;;;;;;5044697;28;20025;-81
2023/09/21 06:48:01;;;;;;;4.65;2.67;;;19.70;90.40;;;;;;5047684;28;20028;-81
2023/09/21 07:07:36;;;;;;;6.15;2.78;;;19.70;90.10;;;;;;5068025;28;20489;-81
2023/09/21 07:10:05;;;;;;;5.60;2.58;;;19.70;90.10;;;;;;5063732;28;20044;-81
2023/09/21 07:12:31;;;;;;;6.13;2.85;;;19.70;90.10;;;;;;5037822;28;20017;-81
2023/09/21 07:14:58;;;;;;;7.80;2.95;;;19.70;90.10;;;;;;5055734;28;20032;-81
2023/09/21 07:17:24;;;;;;;8.55;3.22;;;19.70;90.10;;;;;;5056946;28;20021;-80
2023/09/21 07:19:50;;;;;;;15.85;3.40;;;19.70;90.10;;;;;;5056077;28;20377;-80
2023/09/21 07:22:16;;;;;;;18.83;3.33;;;19.70;90.10;;;;;;5058648;28;20025;-81
2023/09/21 07:24:42;;;;;;;9.43;3.30;;;19.70;90.10;;;;;;5044737;28;20017;-80
2023/09/21 07:27:07;;;;;;;8.20;3.63;;;19.70;90.10;;;;;;5058001;28;20493;-81
2023/09/21 07:29:33;;;;;;;5.30;3.30;;;19.70;90.20;;;;;;5044778;28;20072;-81
2023/09/21 07:32:00;;;;;;;11.18;3.53;;;19.70;90.20;;;;;;5061433;28;20539;-81
2023/09/21 07:34:26;;;;;;;9.07;3.08;;;19.70;90.20;;;;;;5043454;28;20102;-81
2023/09/21 07:36:51;;;;;;;11.57;3.17;;;19.70;90.20;;;;;;5046868;28;20065;-81
2023/09/21 07:39:17;;;;;;;12.30;3.47;;;19.70;90.20;;;;;;5047713;28;20067;-81
2023/09/21 07:41:46;;;;;;;6.80;3.15;;;19.70;90.20;;;;;;5061833;28;20032;-81
2023/09/21 07:44:11;;;;;;;7.90;3.08;;;19.70;90.20;;;;;;5043894;28;20033;-81
2023/09/21 07:46:37;;;;;;;11.40;3.50;;;19.70;90.20;;;;;;5040232;28;20025;-81
2023/09/21 07:49:07;;;;;;;12.15;3.40;;;19.70;90.20;;;;;;5060185;28;20045;-81
2023/09/21 07:51:33;;;;;;;13.57;3.90;;;19.70;90.20;;;;;;5061895;28;20418;-81
2023/09/21 07:54:00;;;;;;;11.52;3.25;;;19.70;90.20;;;;;;5060675;28;20371;-81
2023/09/21 07:56:32;;;;;;;7.22;2.92;;;19.70;90.20;;;;;;5058224;28;20423;-81
2023/09/21 07:58:58;;;;;;;10.60;3.13;;;19.80;90.30;;;;;;5047239;28;20029;-81
2023/09/21 08:01:26;;;;;;;18.65;3.50;;;19.70;90.30;;;;;;5049955;28;20035;-81
2023/09/21 08:03:55;;;;;;;7.63;3.05;;;19.80;90.30;;;;;;5057382;28;20032;-82
2023/09/21 08:06:22;;;;;;;13.90;3.80;;;19.80;90.30;;;;;;5057626;28;20079;-81
2023/09/21 08:08:50;;;;;;;7.93;3.00;;;19.80;90.30;;;;;;5057026;28;20049;-81
2023/09/21 08:11:16;;;;;;;10.75;3.33;;;19.80;90.30;;;;;;5061146;28;20111;-81
2023/09/21 08:13:42;;;;;;;10.45;3.22;;;19.80;90.30;;;;;;5036773;28;20104;-81
2023/09/21 08:16:08;;;;;;;10.65;4.00;;;19.80;90.30;;;;;;5037990;28;20020;-81
2023/09/21 08:18:36;;;;;;;6.00;3.17;;;19.80;90.30;;;;;;5051068;28;20440;-81
2023/09/21 08:21:03;;;;;;;7.75;3.63;;;19.80;90.40;;;;;;5061252;28;20017;-81
2023/09/21 08:23:29;;;;;;;10.80;4.07;;;19.80;90.40;;;;;;5042791;28;20031;-82
2023/09/21 08:25:55;;;;;;;8.05;3.67;;;19.80;90.40;;;;;;5051021;28;20353;-81
2023/09/21 08:28:21;;;;;;;16.23;4.25;;;19.80;90.40;;;;;;5045094;28;20024;-82
2023/09/21 08:30:48;;;;;;;8.23;3.67;;;19.80;90.40;;;;;;5046991;28;20031;-81
2023/09/21 08:33:13;;;;;;;10.50;3.55;;;19.80;90.40;;;;;;5050836;28;20074;-81
2023/09/21 08:35:43;;;;;;;7.40;3.30;;;19.80;90.40;;;;;;5062990;28;20107;-81
2023/09/21 08:38:10;;;;;;;5.30;2.90;;;19.80;90.40;;;;;;5059452;28;20050;-82
2023/09/21 08:40:37;;;;;;;9.23;3.67;;;19.80;90.40;;;;;;5067731;28;20033;-82
2023/09/21 08:43:04;;;;;;;8.88;3.88;;;19.80;90.40;;;;;;5070224;28;20025;-81
2023/09/21 08:45:30;;;;;;;9.30;3.53;;;19.80;90.40;;;;;;5071276;28;20024;-81
2023/09/21 08:47:56;;;;;;;10.77;3.95;;;19.80;90.40;;;;;;5053627;28;20054;-81
2023/09/21 08:50:24;;;;;;;9.75;3.90;;;19.80;90.40;;;;;;5069095;28;20048;-82
2023/09/21 08:52:53;;;;;;;8.30;3.40;;;19.80;90.40;;;;;;5058408;28;20036;-81
2023/09/21 08:55:21;;;;;;;7.63;2.80;;;19.80;90.40;;;;;;5047861;28;20029;-81
2023/09/21 08:57:47;;;;;;;4.38;2.35;;;19.80;90.50;;;;;;5055788;28;20036;-81
2023/09/21 09:00:13;;;;;;;12.30;3.90;;;19.80;90.40;;;;;;5050103;28;20024;-80
2023/09/21 09:02:38;;;;;;;13.90;3.42;;;19.80;90.50;;;;;;5078314;28;20017;-80
2023/09/21 09:05:08;;;;;;;5.57;3.38;;;19.80;90.50;;;;;;5060720;28;20012;-82
2023/09/21 09:07:40;;;;;;;8.35;4.00;;;19.80;90.50;;;;;;5049113;28;20027;-81
2023/09/21 09:10:11;;;;;;;9.38;3.67;;;19.80;90.50;;;;;;5055543;28;20032;-81
2023/09/21 09:12:39;;;;;;;12.25;4.85;;;19.80;90.50;;;;;;5049000;28;20378;-81
2023/09/21 09:15:06;;;;;;;11.23;4.18;;;19.80;90.50;;;;;;5048710;28;20024;-82
2023/09/21 09:17:32;;;;;;;15.45;4.97;;;19.90;90.50;;;;;;5048018;28;20025;-82
2023/09/21 09:20:02;;;;;;;10.13;4.38;;;19.90;90.50;;;;;;5048943;28;20025;-81
2023/09/21 09:22:28;;;;;;;10.55;3.80;;;19.90;90.50;;;;;;5049340;28;20499;-81
2023/09/21 09:24:56;;;;;;;12.55;4.57;;;19.90;90.50;;;;;;5063155;28;20493;-81
2023/09/21 09:27:21;;;;;;;17.75;4.53;;;19.90;90.60;;;;;;5052395;28;20055;-80
2023/09/21 09:29:50;;;;;;;9.02;4.22;;;19.90;90.50;;;;;;5058374;28;20478;-81
2023/09/21 09:32:18;;;;;;;7.55;3.72;;;19.90;90.60;;;;;;5061166;28;20569;-81
2023/09/21 09:34:46;;;;;;;8.73;3.53;;;19.90;90.60;;;;;;5061765;28;20071;-81
2023/09/21 09:37:14;;;;;;;13.57;3.72;;;19.90;90.60;;;;;;5048364;28;20074;-81
2023/09/21 09:39:40;;;;;;;8.75;3.65;;;19.90;90.60;;;;;;5058522;28;20436;-81
2023/09/21 09:42:06;;;;;;;6.90;3.08;;;19.90;90.60;;;;;;5046297;28;20031;-82
2023/09/21 09:44:39;;;;;;;7.75;2.60;;;19.90;90.60;;;;;;5042729;28;20020;-81
2023/09/21 09:47:09;;;;;;;10.80;2.67;;;19.90;90.60;;;;;;5046800;28;20020;-81
2023/09/21 09:49:38;;;;;;;9.65;3.20;;;19.90;90.60;;;;;;5043857;28;20096;-81
2023/09/21 09:52:06;;;;;;;8.93;3.10;;;20.00;90.60;;;;;;5040490;28;20130;-82
2023/09/21 09:54:32;;;;;;;4.90;2.78;;;19.90;90.60;;;;;;5059515;28;20060;-82
2023/09/21 09:57:01;;;;;;;5.80;2.72;;;19.90;90.70;;;;;;5063590;28;20104;-82
2023/09/21 09:59:28;;;;;;;3.65;2.40;;;19.90;90.70;;;;;;5046423;28;20116;-81
2023/09/21 10:01:55;;;;;;;6.43;2.60;;;19.90;90.70;;;;;;5059761;28;20465;-83
2023/09/21 10:04:21;;;;;;;6.13;2.38;;;19.90;90.70;;;;;;5046945;28;20478;-81
2023/09/21 10:06:48;;;;;;;4.13;2.30;;;20.00;90.70;;;;;;5064598;28;20035;-82
2023/09/21 10:09:15;;;;;;;3.85;2.30;;;19.90;90.70;;;;;;5055858;28;20044;-82
2023/09/21 10:11:51;;;;;;;3.33;2.28;;;20.00;90.70;;;;;;5058837;28;20075;-82
2023/09/21 10:14:20;;;;;;;7.75;2.58;;;20.00;90.70;;;;;;5057903;28;20032;-82
2023/09/21 10:16:54;;;;;;;8.02;2.78;;;20.00;90.70;;;;;;5059988;28;20032;-81
2023/09/21 10:19:25;;;;;;;5.63;2.17;;;20.00;90.70;;;;;;5039856;28;20033;-82
2023/09/21 10:21:55;;;;;;;5.20;1.67;;;20.00;90.70;;;;;;5049006;28;20109;-82
2023/09/21 10:24:24;;;;;;;4.05;1.95;;;20.00;90.80;;;;;;5040165;28;20027;-83
2023/09/21 10:26:51;;;;;;;3.72;2.13;;;20.00;90.80;;;;;;5050354;28;20498;-83
2023/09/21 10:29:26;;;;;;;3.03;1.80;;;20.00;90.80;;;;;;5047717;28;20035;-82
2023/09/21 10:32:04;;;;;;;6.28;1.40;;;20.00;90.80;;;;;;5049874;28;20484;-81
2023/09/21 10:34:31;;;;;;;2.28;1.33;;;20.00;90.80;;;;;;5047174;28;20052;-83
2023/09/21 10:37:10;;;;;;;2.60;1.55;;;20.00;90.80;;;;;;5043560;28;20071;-81
2023/09/21 10:39:41;;;;;;;3.45;1.40;;;20.00;90.80;;;;;;5047450;28;20032;-83
2023/09/21 10:42:07;;;;;;;5.82;1.65;;;20.00;90.90;;;;;;5058412;28;20032;-82
2023/09/21 10:45:03;;;;;;;2.10;1.48;;;20.00;90.90;;;;;;5050151;28;20032;-82
2023/09/21 10:47:38;;;;;;;6.40;1.92;;;20.00;90.90;;;;;;5046109;28;20025;-81
2023/09/21 10:50:06;;;;;;;2.58;1.38;;;20.00;90.90;;;;;;5040039;28;20463;-81
2023/09/21 10:52:32;;;;;;;2.85;1.65;;;20.00;90.90;;;;;;5046496;28;20025;-82
2023/09/21 10:54:59;;;;;;;3.17;1.55;;;20.00;90.90;;;;;;5062047;28;20031;-82
2023/09/21 10:57:29;;;;;;;3.97;1.50;;;20.00;90.90;;;;;;5043228;28;20024;-82
2023/09/21 10:59:59;;;;;;;3.05;1.60;;;20.10;91.00;;;;;;5044320;28;20551;-81
2023/09/21 11:02:30;;;;;;;9.40;2.10;;;20.00;90.90;;;;;;5045977;28;20025;-82
2023/09/21 11:04:57;;;;;;;7.93;1.95;;;20.10;91.00;;;;;;5063609;28;20032;-81
2023/09/21 11:07:25;;;;;;;6.07;1.70;;;20.10;91.00;;;;;;5057743;28;20039;-82
2023/09/21 11:09:50;;;;;;;2.33;1.65;;;20.10;91.00;;;;;;5046441;28;20035;-81
2023/09/21 11:12:17;;;;;;;2.80;1.77;;;20.10;91.00;;;;;;5050036;28;20389;-81
2023/09/21 11:14:48;;;;;;;4.78;1.42;;;20.10;91.10;;;;;;5060985;28;20474;-82
2023/09/21 11:17:18;;;;;;;1.90;1.45;;;20.10;91.10;;;;;;5064040;28;20016;-82
2023/09/21 11:19:45;;;;;;;5.30;1.45;;;20.10;91.10;;;;;;5072881;28;20060;-85
2023/09/21 11:22:15;;;;;;;2.17;1.58;;;20.10;91.10;;;;;;5061899;28;20040;-82
2023/09/21 11:24:42;;;;;;;5.65;1.90;;;20.10;91.10;;;;;;5062753;28;20363;-82
2023/09/21 11:27:09;;;;;;;3.72;1.65;;;20.20;91.10;;;;;;5058181;28;20035;-81
2023/09/21 11:29:38;;;;;;;2.88;1.52;;;20.10;91.10;;;;;;5044866;28;20112;-81
2023/09/21 11:32:07;;;;;;;5.97;1.75;;;20.20;91.50;;;;;;5052796;28;20024;-81
2023/09/21 11:34:36;;;;;;;2.50;1.20;;;20.20;91.20;;;;;;5048011;28;20032;-80
2023/09/21 11:37:04;;;;;;;4.15;1.58;;;20.20;91.20;;;;;;5045903;28;20074;-81
2023/09/21 11:39:30;;;;;;;2.60;1.70;;;20.20;91.10;;;;;;5046480;28;20025;-82
2023/09/21 11:41:57;;;;;;;1.98;1.70;;;20.20;91.10;;;;;;5044114;28;20028;-82
2023/09/21 11:44:29;;;;;;;2.20;1.27;;;20.20;91.10;;;;;;5049427;28;20221;-82
2023/09/21 11:46:58;;;;;;;7.97;1.80;;;20.20;91.20;;;;;;5043320;28;20024;-81
2023/09/21 11:49:43;;;;;;;2.20;1.27;;;20.20;91.20;;;;;;5061724;28;20052;-81
2023/09/21 11:52:13;;;;;;;3.95;1.80;;;20.20;91.20;;;;;;5051702;28;20059;-81
2023/09/21 11:54:39;;;;;;;13.93;2.33;;;20.20;91.20;;;;;;5054760;28;20029;-81
2023/09/21 11:57:09;;;;;;;2.67;1.33;;;20.20;91.20;;;;;;5063023;28;20028;-81
2023/09/21 11:59:39;;;;;;;8.95;1.67;;;20.20;91.20;;;;;;5065382;28;20029;-82
2023/09/21 12:02:10;;;;;;;1.90;1.45;;;20.20;91.20;;;;;;5065997;28;20055;-81
2023/09/21 12:04:36;;;;;;;;;;;20.20;91.30;;;;;;5046838;28;20021;-81
2023/09/21 12:07:01;;;;;;;1.90;1.70;;;20.20;91.20;;;;;;5053439;28;19917;-81
2023/09/21 12:09:27;;;;;;;4.57;1.80;;;20.30;91.30;;;;;;5062008;28;20021;-81
2023/09/21 12:11:54;;;;;;;1.80;1.52;;;20.30;91.20;;;;;;5045747;28;20036;-81
2023/09/21 12:14:22;;;;;;;1.75;1.33;;;20.30;91.30;;;;;;5068225;28;20023;-81
2023/09/21 12:16:50;;;;;;;4.05;1.55;;;20.30;91.30;;;;;;5050434;28;20107;-80
2023/09/21 12:19:19;;;;;;;3.80;1.70;;;20.30;91.30;;;;;;5051029;28;20549;-81
2023/09/21 12:21:48;;;;;;;2.95;1.75;;;20.30;91.30;;;;;;5044802;28;20029;-81
2023/09/21 12:24:15;;;;;;;2.45;1.38;;;20.20;91.30;;;;;;5041944;28;20414;-82
2023/09/21 12:26:41;;;;;;;3.45;1.52;;;20.30;91.30;;;;;;5040571;28;20013;-81
2023/09/21 12:29:09;;;;;;;2.92;1.80;;;20.30;91.30;;;;;;5050515;28;20029;-81
2023/09/21 12:31:35;;;;;;;2.22;1.58;;;20.30;91.30;;;;;;5051322;28;20020;-80
2023/09/21 12:34:02;;;;;;;4.97;1.40;;;20.30;91.30;;;;;;5048543;28;20032;-82
2023/09/21 12:36:28;;;;;;;2.47;1.52;;;20.30;91.30;;;;;;5053228;28;20462;-81
2023/09/21 12:38:55;;;;;;;1.90;1.60;;;20.30;91.30;;;;;;5052924;28;20373;-81
2023/09/21 12:41:21;;;;;;;1.65;1.55;;;20.30;91.30;;;;;;5062130;28;20020;-82
2023/09/21 12:43:46;;;;;;;2.38;1.50;;;20.30;91.40;;;;;;5044089;28;20033;-82
2023/09/21 12:46:12;;;;;;;3.03;2.08;;;20.30;91.40;;;;;;5051716;28;20386;-82
2023/09/21 12:48:38;;;;;;;2.95;1.60;;;20.30;91.40;;;;;;5067583;28;20020;-81
2023/09/21 12:51:04;;;;;;;2.90;1.77;;;20.40;91.40;;;;;;5053753;28;20051;-82
2023/09/21 12:53:30;;;;;;;5.40;1.50;;;20.30;91.40;;;;;;5045897;28;20021;-82
2023/09/21 12:55:56;;;;;;;4.60;1.27;;;20.30;91.40;;;;;;5045034;28;20035;-81
2023/09/21 12:58:23;;;;;;;3.22;1.77;;;20.40;91.40;;;;;;5050398;28;20025;-82
2023/09/21 13:00:52;;;;;;;2.08;1.30;;;20.40;91.40;;;;;;5053769;28;20044;-82
2023/09/21 13:03:18;;;;;;;4.10;1.60;;;20.40;91.40;;;;;;5049137;28;20036;-82
2023/09/21 13:05:45;;;;;;;3.17;1.48;;;20.30;91.40;;;;;;5048706;28;20616;-81
2023/09/21 13:08:12;;;;;;;3.20;1.90;;;20.40;91.50;;;;;;5049321;28;20385;-81
2023/09/21 13:10:39;;;;;;;3.10;1.80;;;20.40;91.50;;;;;;5049223;28;20025;-82
2023/09/21 13:13:05;;;;;;;1.48;1.38;;;20.30;91.40;;;;;;5056344;28;20116;-80
2023/09/21 13:15:31;;;;;;;2.83;1.80;;;20.40;91.50;;;;;;5045119;28;20119;-81
2023/09/21 13:17:57;;;;;;;6.13;2.10;;;20.40;91.50;;;;;;5048029;28;20033;-82
2023/09/21 13:20:24;;;;;;;6.40;1.60;;;20.30;91.40;;;;;;5053202;28;20108;-81
2023/09/21 13:22:51;;;;;;;2.38;1.90;;;20.40;91.50;;;;;;5051209;28;20119;-81
2023/09/21 13:25:17;;;;;;;3.17;1.35;;;20.40;91.50;;;;;;5048075;28;20020;-81
2023/09/21 13:27:42;;;;;;;3.75;1.90;;;20.40;91.50;;;;;;5043656;28;20032;-82
2023/09/21 13:30:09;;;;;;;3.83;1.83;;;20.30;91.40;;;;;;5047290;28;20382;-81
2023/09/21 13:32:35;;;;;;;3.40;1.75;;;20.30;91.50;;;;;;5041592;28;20035;-81
2023/09/21 13:35:01;;;;;;;5.95;1.90;;;20.40;91.50;;;;;;5063913;28;20155;-80
2023/09/21 13:37:27;;;;;;;5.18;1.73;;;20.30;91.50;;;;;;5045154;28;20036;-81
2023/09/21 13:39:53;;;;;;;3.03;1.70;;;20.30;91.50;;;;;;5052383;28;20081;-80
2023/09/21 13:42:19;;;;;;;2.95;1.60;;;20.30;91.50;;;;;;5048608;28;20044;-80
2023/09/21 13:44:44;;;;;;;3.20;1.70;;;20.30;91.50;;;;;;5048593;28;20036;-82
2023/09/21 13:47:10;;;;;;;2.47;1.58;;;20.30;91.50;;;;;;5064209;28;20033;-82
2023/09/21 13:49:36;;;;;;;4.22;1.52;;;20.30;91.50;;;;;;5059365;28;20126;-82
2023/09/21 13:52:02;;;;;;;5.28;2.03;;;20.30;91.50;;;;;;5038239;28;20047;-81
2023/09/21 13:54:29;;;;;;;5.50;1.90;;;20.30;91.50;;;;;;5062263;28;20032;-82
2023/09/21 13:56:55;;;;;;;2.40;1.38;;;20.30;91.50;;;;;;5047123;28;20511;-82
2023/09/21 13:59:21;;;;;;;2.72;1.73;;;20.30;91.50;;;;;;5064423;28;20029;-81
2023/09/21 14:01:47;;;;;;;1.65;1.35;;;20.30;91.50;;;;;;5061089;28;20035;-82
2023/09/21 14:04:13;;;;;;;2.22;1.40;;;20.30;91.50;;;;;;5048743;28;20520;-82
2023/09/21 14:06:39;;;;;;;1.73;1.55;;;20.30;91.50;;;;;;5040218;28;20390;-82
2023/09/21 14:09:07;;;;;;;2.83;1.58;;;20.30;91.50;;;;;;5049358;28;20033;-82
2023/09/21 14:11:33;;;;;;;9.63;1.55;;;20.30;91.50;;;;;;5058823;28;20031;-82
2023/09/21 14:14:00;;;;;;;1.85;1.60;;;20.30;91.50;;;;;;5059672;28;20021;-81
2023/09/21 14:16:26;;;;;;;2.80;1.48;;;20.30;91.50;;;;;;5049509;28;20024;-81
2023/09/21 14:18:52;;;;;;;1.98;1.77;;;20.30;91.50;;;;;;5044661;28;20025;-81
2023/09/21 14:21:20;;;;;;;2.65;1.63;;;20.30;91.50;;;;;;5061997;28;20086;-81
2023/09/21 14:23:46;;;;;;;4.72;1.85;;;20.30;91.50;;;;;;5042356;28;20490;-82
2023/09/21 14:26:12;;;;;;;3.20;1.77;;;20.30;91.50;;;;;;5059194;28;20023;-80
2023/09/21 14:28:37;;;;;;;2.38;1.35;;;20.30;91.50;;;;;;5039790;28;20461;-81
2023/09/21 14:31:03;;;;;;;2.28;1.60;;;20.30;91.50;;;;;;5045192;28;20036;-81
2023/09/21 14:33:29;;;;;;;2.05;1.65;;;20.30;91.50;;;;;;5051314;28;20060;-80
2023/09/21 14:35:56;;;;;;;2.17;1.77;;;20.30;91.50;;;;;;5050088;28;20063;-81
2023/09/21 14:38:22;;;;;;;5.80;1.73;;;20.30;91.50;;;;;;5060809;28;20016;-81
2023/09/21 14:40:51;;;;;;;2.80;1.60;;;20.30;91.90;;;;;;5037703;28;20915;-80
2023/09/21 14:43:17;;;;;;;4.03;2.03;;;20.30;91.60;;;;;;5052637;28;20032;-80
2023/09/21 14:45:43;;;;;;;1.77;1.38;;;20.30;91.60;;;;;;5049492;28;20017;-81
2023/09/21 14:48:08;;;;;;;1.10;1.05;;;20.30;91.60;;;;;;5057248;28;20028;-81
2023/09/21 14:50:34;;;;;;;5.00;1.60;;;20.30;91.60;;;;;;5043282;28;20024;-81
2023/09/21 14:53:01;;;;;;;3.53;1.75;;;20.30;91.60;;;;;;5060725;28;20033;-82
2023/09/21 14:55:27;;;;;;;8.70;1.65;;;20.30;91.60;;;;;;5057770;28;20025;-81
2023/09/21 14:57:54;;;;;;;3.08;1.75;;;20.30;91.60;;;;;;5052056;28;20036;-81
2023/09/21 15:00:20;;;;;;;1.40;1.30;;;20.30;91.60;;;;;;5050264;28;20081;-81
2023/09/21 15:02:49;;;;;;;2.03;1.25;;;20.30;91.60;;;;;;5060265;28;20424;-81
2023/09/21 15:05:15;;;;;;;1.25;1.08;;;20.30;91.60;;;;;;5060555;28;20034;-81
2023/09/21 15:07:41;;;;;;;2.35;1.42;;;20.30;91.60;;;;;;5047975;28;20024;-81
2023/09/21 15:10:07;;;;;;;2.60;1.15;;;20.30;91.60;;;;;;5062222;28;20111;-82
2023/09/21 15:12:33;;;;;;;2.83;1.33;;;20.30;91.60;;;;;;5042494;28;20460;-81
2023/09/21 15:14:59;;;;;;;2.17;1.60;;;20.30;91.60;;;;;;5046892;28;20024;-81
2023/09/21 15:17:25;;;;;;;2.08;1.45;;;20.30;91.60;;;;;;5044464;28;20555;-81
2023/09/21 15:19:51;;;;;;;2.90;1.52;;;20.30;91.60;;;;;;5048917;28;20032;-81
2023/09/21 15:22:20;;;;;;;3.20;1.20;;;20.30;91.60;;;;;;5043069;28;20460;-81
2023/09/21 15:24:47;;;;;;;1.77;1.33;;;20.30;91.60;;;;;;5060681;28;20086;-81
2023/09/21 15:27:16;;;;;;;5.22;1.20;;;20.30;91.60;;;;;;5038132;28;20024;-81
2023/09/21 15:29:42;;;;;;;3.13;1.45;;;20.30;91.60;;;;;;5042503;28;20036;-81
2023/09/21 15:32:09;;;;;;;2.08;1.48;;;20.30;91.70;;;;;;5039275;28;20401;-81
2023/09/21 15:34:35;;;;;;;2.10;1.23;;;20.30;91.60;;;;;;5042973;28;20033;-82
2023/09/21 15:37:00;;;;;;;1.65;1.40;;;20.30;91.60;;;;;;5045904;28;20470;-81
2023/09/21 15:39:27;;;;;;;1.52;1.33;;;20.30;91.60;;;;;;5041947;28;20020;-80
2023/09/21 15:41:55;;;;;;;1.70;1.10;;;20.30;91.60;;;;;;5043394;28;20032;-81
2023/09/21 15:44:22;;;;;;;4.55;1.60;;;20.30;91.60;;;;;;5046764;28;20082;-81
2023/09/21 15:46:47;;;;;;;13.48;6.30;;;20.30;91.60;;;;;;5042036;28;20021;-81
2023/09/21 15:49:13;;;;;;;10.98;2.65;;;20.30;91.60;;;;;;5036696;28;20062;-81
2023/09/21 15:51:39;;;;;;;12.80;4.40;;;20.30;91.60;;;;;;5049031;28;20047;-81
2023/09/21 15:54:05;;;;;;;3.92;2.17;;;20.30;91.60;;;;;;5049278;28;20021;-81
2023/09/21 15:56:31;;;;;;;6.10;1.45;;;20.30;91.60;;;;;;5041071;28;20024;-81
2023/09/21 15:58:57;;;;;;;2.38;1.20;;;20.30;91.60;;;;;;5051776;28;20025;-80
2023/09/21 16:01:22;;;;;;;3.75;1.13;;;20.40;91.70;;;;;;5055123;28;20404;-82
2023/09/21 16:03:48;;;;;;;2.45;1.40;;;20.30;91.60;;;;;;5048316;28;20523;-81
2023/09/21 16:06:14;;;;;;;7.40;1.42;;;20.30;91.60;;;;;;5040498;28;20033;-81
2023/09/21 16:08:40;;;;;;;2.85;2.15;;;20.30;91.70;;;;;;5059766;28;20062;-81
2023/09/21 16:11:06;;;;;;;6.43;2.00;;;20.30;91.70;;;;;;5041095;28;20469;-81